createdAt,value
2018-01-13T00:01:28.133Z,19.20
2018-01-13T00:03:55.716Z,19.97
2018-01-13T00:06:24.074Z,19.43
2018-01-13T00:08:51.679Z,19.83
2018-01-13T00:11:19.265Z,20.30
2018-01-13T00:13:46.858Z,18.77
2018-01-13T00:16:14.448Z,18.43
2018-01-13T00:18:42.815Z,20.60
2018-01-13T00:21:11.163Z,20.33
2018-01-13T00:23:38.792Z,19.17
2018-01-13T00:26:06.385Z,20.23
2018-01-13T00:28:33.987Z,21.50
2018-01-13T00:31:02.376Z,21.70
2018-01-13T00:33:29.966Z,19.20
2018-01-13T00:35:57.630Z,20.80
2018-01-13T00:38:25.212Z,20.00
2018-01-13T00:40:52.833Z,20.70
2018-01-13T00:43:20.797Z,20.83
2018-01-13T00:45:48.398Z,22.80
2018-01-13T00:48:15.980Z,22.03
2018-01-13T00:50:43.601Z,21.90
2018-01-13T00:53:11.291Z,20.37
2018-01-13T00:55:38.896Z,20.20
2018-01-13T00:58:06.587Z,19.10
2018-01-13T01:00:34.169Z,20.83
2018-01-13T01:03:01.798Z,19.47
2018-01-13T01:05:29.400Z,20.13
2018-01-13T01:07:57.006Z,19.30
2018-01-13T01:10:24.593Z,19.30
2018-01-13T01:12:55.974Z,19.27
2018-01-13T01:15:23.607Z,21.43
2018-01-13T01:17:51.187Z,20.13
2018-01-13T01:20:18.814Z,19.27
2018-01-13T01:22:46.402Z,20.00
2018-01-13T01:25:13.988Z,20.40
2018-01-13T01:27:41.597Z,20.40
2018-01-13T01:30:09.233Z,19.40
2018-01-13T01:32:37.580Z,21.50
2018-01-13T01:35:05.156Z,20.70
2018-01-13T01:37:32.758Z,20.30
2018-01-13T01:40:00.352Z,18.77
2018-01-13T01:42:27.978Z,20.70
2018-01-13T01:44:55.663Z,19.53
2018-01-13T01:47:23.248Z,19.50
2018-01-13T01:49:50.826Z,19.10
2018-01-13T01:52:18.440Z,19.40
2018-01-13T01:54:46.024Z,18.37
2018-01-13T01:57:13.611Z,19.60
2018-01-13T01:59:41.961Z,18.53
2018-01-13T02:02:09.569Z,17.93
2018-01-13T02:04:37.148Z,16.90
2018-01-13T02:07:04.791Z,18.50
2018-01-13T02:09:33.159Z,16.60
2018-01-13T02:12:01.519Z,18.40
2018-01-13T02:14:29.144Z,17.63
2018-01-13T02:16:56.977Z,16.03
2018-01-13T02:19:25.342Z,18.10
2018-01-13T02:21:53.702Z,15.70
2018-01-13T02:24:21.298Z,15.70
2018-01-13T02:26:48.892Z,15.70
2018-01-13T02:29:16.486Z,15.50
2018-01-13T02:31:44.092Z,16.37
2018-01-13T02:34:11.686Z,15.93
2018-01-13T02:36:39.298Z,16.70
2018-01-13T02:39:07.648Z,15.70
2018-01-13T02:41:35.246Z,15.77
2018-01-13T02:44:02.836Z,16.30
2018-01-13T02:46:30.431Z,15.60
2018-01-13T02:48:58.020Z,15.73
2018-01-13T02:51:26.364Z,16.83
2018-01-13T02:53:54.013Z,15.73
2018-01-13T02:56:21.611Z,16.10
2018-01-13T02:58:49.974Z,15.97
2018-01-13T03:01:17.570Z,16.30
2018-01-13T03:03:45.938Z,15.27
2018-01-13T03:06:14.289Z,15.40
2018-01-13T03:08:41.884Z,15.73
2018-01-13T03:11:10.238Z,15.77
2018-01-13T03:13:37.838Z,14.90
2018-01-13T03:16:05.443Z,13.97
2018-01-13T03:18:33.045Z,15.13
2018-01-13T03:21:01.404Z,15.90
2018-01-13T03:23:29.988Z,14.60
2018-01-13T03:25:57.581Z,15.63
2018-01-13T03:28:25.182Z,16.03
2018-01-13T03:30:52.781Z,15.30
2018-01-13T03:33:21.138Z,15.33
2018-01-13T03:35:48.739Z,15.20
2018-01-13T03:38:16.351Z,15.27
2018-01-13T03:40:43.959Z,17.40
2018-01-13T03:43:11.551Z,16.43
2018-01-13T03:45:39.153Z,15.60
2018-01-13T03:48:06.746Z,16.60
2018-01-13T03:50:34.357Z,16.03
2018-01-13T03:53:01.935Z,17.47
2018-01-13T03:55:29.551Z,16.40
2018-01-13T03:57:57.139Z,18.17
2018-01-13T04:00:24.740Z,16.83
2018-01-13T04:02:53.092Z,16.70
2018-01-13T04:05:20.694Z,17.07
2018-01-13T04:07:48.307Z,16.70
2018-01-13T04:10:15.939Z,18.10
2018-01-13T04:12:43.540Z,17.90
2018-01-13T04:15:11.120Z,16.03
2018-01-13T04:17:39.480Z,19.33
2018-01-13T04:20:07.074Z,18.30
2018-01-13T04:22:34.672Z,17.67
2018-01-13T04:25:02.285Z,16.47
2018-01-13T04:27:30.660Z,17.67
2018-01-13T04:29:59.009Z,17.80
2018-01-13T04:32:26.670Z,17.77
2018-01-13T04:34:54.247Z,17.03
2018-01-13T04:37:21.836Z,20.30
2018-01-13T04:39:49.436Z,20.17
2018-01-13T04:42:17.064Z,19.50
2018-01-13T04:44:44.685Z,18.40
2018-01-13T04:47:12.311Z,18.37
2018-01-13T04:49:40.825Z,17.63
2018-01-13T04:52:08.429Z,19.67
2018-01-13T04:54:36.049Z,19.40
2018-01-13T04:57:03.659Z,19.90
2018-01-13T04:59:31.258Z,19.20
2018-01-13T05:01:58.931Z,18.80
2018-01-13T05:04:26.538Z,19.80
2018-01-13T05:06:54.134Z,18.30
2018-01-13T05:09:21.730Z,18.30
2018-01-13T05:11:49.320Z,19.67
2018-01-13T05:14:16.921Z,20.30
2018-01-13T05:16:44.514Z,20.97
2018-01-13T05:19:12.176Z,20.87
2018-01-13T05:21:39.797Z,18.53
2018-01-13T05:24:07.393Z,19.17
2018-01-13T05:26:35.000Z,18.27
2018-01-13T05:29:02.606Z,20.17
2018-01-13T05:31:37.109Z,18.87
2018-01-13T05:34:05.050Z,19.43
2018-01-13T05:36:32.627Z,19.90
2018-01-13T05:39:00.242Z,20.30
2018-01-13T05:41:28.601Z,18.43
2018-01-13T05:43:56.261Z,19.60
2018-01-13T05:46:23.831Z,19.03
2018-01-13T05:48:51.418Z,18.87
2018-01-13T05:51:19.765Z,19.70
2018-01-13T05:53:47.371Z,17.57
2018-01-13T05:56:14.965Z,18.40
2018-01-13T05:58:42.599Z,17.80
2018-01-13T06:01:10.207Z,17.73
2018-01-13T06:03:37.788Z,17.87
2018-01-13T06:06:06.144Z,17.83
2018-01-13T06:08:33.723Z,18.97
2018-01-13T06:11:01.363Z,18.70
2018-01-13T06:13:31.991Z,20.10
2018-01-13T06:15:59.582Z,19.87
2018-01-13T06:18:27.956Z,19.57
2018-01-13T06:20:55.539Z,20.10
2018-01-13T06:23:23.119Z,19.17
2018-01-13T06:26:01.224Z,18.90
2018-01-13T06:28:28.816Z,20.07
2018-01-13T06:30:56.412Z,18.67
2018-01-13T06:33:24.768Z,17.50
2018-01-13T06:35:52.365Z,18.13
2018-01-13T06:38:20.716Z,18.57
2018-01-13T06:40:48.303Z,17.80
2018-01-13T06:43:30.333Z,18.23
2018-01-13T06:45:58.289Z,16.67
2018-01-13T06:48:26.909Z,16.40
2018-01-13T06:50:59.909Z,17.70
2018-01-13T06:53:27.492Z,16.90
2018-01-13T06:55:59.468Z,17.83
2018-01-13T06:58:34.020Z,17.40
2018-01-13T07:01:12.594Z,18.50
2018-01-13T07:03:40.186Z,17.97
2018-01-13T07:06:07.812Z,16.63
2018-01-13T07:08:35.427Z,17.30
2018-01-13T07:11:03.011Z,18.17
2018-01-13T07:13:31.613Z,16.33
2018-01-13T07:15:59.202Z,18.07
2018-01-13T07:18:27.618Z,19.73
2018-01-13T07:20:55.194Z,17.23
2018-01-13T07:23:22.818Z,19.60
2018-01-13T07:25:54.170Z,18.37
2018-01-13T07:28:21.788Z,17.80
2018-01-13T07:30:49.390Z,17.70
2018-01-13T07:33:23.938Z,19.00
2018-01-13T07:35:52.295Z,17.87
2018-01-13T07:38:19.892Z,18.23
2018-01-13T07:40:47.486Z,17.17
2018-01-13T07:43:27.708Z,18.07
2018-01-13T07:45:55.285Z,17.30
2018-01-13T07:48:22.895Z,17.23
2018-01-13T07:50:50.510Z,18.63
2018-01-13T07:53:18.120Z,17.80
2018-01-13T07:55:45.702Z,17.63
2018-01-13T07:58:13.307Z,17.63
2018-01-13T08:00:40.893Z,18.20
2018-01-13T08:03:08.521Z,19.03
2018-01-13T08:05:36.147Z,18.70
2018-01-13T08:08:03.752Z,18.50
2018-01-13T08:10:31.362Z,18.27
2018-01-13T08:12:59.012Z,18.00
2018-01-13T08:15:26.883Z,19.30
2018-01-13T08:17:54.501Z,19.40
2018-01-13T08:20:22.104Z,18.23
2018-01-13T08:22:49.760Z,19.47
2018-01-13T08:25:17.362Z,19.70
2018-01-13T08:27:45.744Z,18.53
2018-01-13T08:30:13.343Z,17.90
2018-01-13T08:32:41.705Z,17.93
2018-01-13T08:35:09.320Z,18.10
2018-01-13T08:37:37.140Z,18.20
2018-01-13T08:40:04.759Z,18.63
2018-01-13T08:42:32.348Z,18.00
2018-01-13T08:45:00.088Z,17.73
2018-01-13T08:47:27.669Z,20.13
2018-01-13T08:49:55.267Z,19.23
2018-01-13T08:52:23.607Z,20.30
2018-01-13T08:54:51.210Z,19.10
2018-01-13T08:57:19.703Z,18.30
2018-01-13T08:59:48.246Z,18.87
2018-01-13T09:02:20.167Z,19.37
2018-01-13T09:04:47.872Z,18.93
2018-01-13T09:07:16.309Z,18.90
2018-01-13T09:09:43.914Z,18.37
2018-01-13T09:12:11.510Z,19.87
2018-01-13T09:14:39.134Z,19.37
2018-01-13T09:17:06.716Z,18.03
2018-01-13T09:19:35.075Z,18.40
2018-01-13T09:22:02.666Z,18.30
2018-01-13T09:24:31.035Z,20.20
2018-01-13T09:26:59.408Z,17.83
2018-01-13T09:29:27.774Z,17.50
2018-01-13T09:31:55.382Z,19.17
2018-01-13T09:34:22.976Z,20.30
2018-01-13T09:36:50.655Z,21.30
2018-01-13T09:39:18.244Z,19.30
2018-01-13T09:41:46.605Z,18.73
2018-01-13T09:44:14.214Z,19.03
2018-01-13T09:46:41.828Z,20.27
2018-01-13T09:49:09.613Z,19.67
2018-01-13T09:51:37.256Z,19.90
2018-01-13T09:54:04.901Z,19.90
2018-01-13T09:56:33.475Z,18.87
2018-01-13T09:59:01.102Z,18.90
2018-01-13T10:01:28.696Z,19.83
2018-01-13T10:03:56.299Z,18.63
2018-01-13T10:06:24.662Z,20.20
2018-01-13T10:08:52.244Z,18.47
2018-01-13T10:11:20.623Z,19.67
2018-01-13T10:13:48.967Z,19.10
2018-01-13T10:16:16.586Z,19.47
2018-01-13T10:18:44.162Z,18.30
2018-01-13T10:21:11.761Z,19.10
2018-01-13T11:46:08.965Z,20.00
2018-01-13T11:48:36.616Z,20.47
2018-01-13T11:51:04.215Z,19.30
2018-01-13T11:53:31.819Z,20.37
2018-01-13T11:55:59.424Z,19.20
2018-01-13T11:58:27.791Z,19.53
2018-01-13T12:00:56.176Z,20.83
2018-01-13T12:03:24.524Z,21.70
2018-01-13T12:05:52.204Z,20.17
2018-01-13T12:08:19.801Z,20.47
2018-01-13T12:10:47.423Z,20.90
2018-01-13T12:13:15.014Z,20.60
2018-01-13T12:15:42.747Z,19.97
2018-01-13T12:18:11.121Z,20.57
2018-01-13T12:20:38.745Z,20.53
2018-01-13T12:23:06.353Z,20.23
2018-01-13T12:25:33.928Z,20.40
2018-01-13T12:28:02.282Z,19.97
2018-01-13T12:30:29.878Z,20.60
2018-01-13T12:32:57.488Z,18.77
2018-01-13T12:35:25.080Z,18.87
2018-01-13T12:37:53.469Z,19.63
2018-01-13T12:40:21.069Z,19.50
2018-01-13T12:42:48.691Z,19.87
2018-01-13T12:45:17.045Z,19.37
2018-01-13T12:47:44.639Z,18.37
2018-01-13T12:50:12.246Z,16.80
2018-01-13T12:52:40.641Z,15.90
2018-01-13T12:55:08.230Z,17.20
2018-01-13T12:57:36.590Z,18.43
2018-01-13T13:00:04.186Z,17.70
2018-01-13T13:02:31.770Z,19.80
2018-01-13T13:05:02.842Z,18.47
2018-01-13T13:07:30.432Z,19.30
2018-01-13T13:09:59.706Z,18.60
2018-01-13T13:12:27.319Z,18.90
2018-01-13T13:14:54.909Z,19.90
2018-01-13T13:17:22.518Z,18.37
2018-01-13T13:19:50.183Z,16.63
2018-01-13T13:22:18.543Z,16.10
2018-01-13T13:24:46.143Z,17.57
2018-01-13T13:27:13.733Z,16.67
2018-01-13T13:29:42.383Z,16.90
2018-01-13T13:32:09.956Z,17.80
2018-01-13T13:34:37.545Z,18.10
2018-01-13T13:37:05.119Z,15.53
2018-01-13T13:39:32.721Z,16.40
2018-01-13T13:42:01.068Z,15.57
2018-01-13T13:44:28.652Z,16.57
2018-01-13T13:46:57.058Z,16.33
2018-01-13T13:49:24.640Z,15.60
2018-01-13T13:51:52.458Z,15.03
2018-01-13T13:54:20.857Z,16.10
2018-01-13T13:56:55.113Z,15.70
2018-01-13T13:59:22.695Z,15.73
2018-01-13T14:01:50.304Z,14.87
2018-01-13T14:04:18.901Z,15.90
2018-01-13T14:06:46.485Z,15.30
2018-01-13T14:09:14.071Z,15.63
2018-01-13T14:11:42.430Z,15.87
2018-01-13T14:14:10.030Z,16.33
2018-01-13T14:16:37.659Z,17.20
2018-01-13T14:19:05.304Z,18.53
2018-01-13T14:21:32.925Z,17.10
2018-01-13T14:24:00.508Z,17.57
2018-01-13T14:26:28.092Z,17.07
2018-01-13T14:28:55.681Z,16.80
2018-01-13T14:31:24.046Z,17.33
2018-01-13T14:33:51.626Z,18.17
2018-01-13T14:36:19.982Z,15.97
2018-01-13T14:38:47.615Z,16.70
2018-01-13T14:41:15.204Z,16.10
2018-01-13T14:43:42.788Z,16.13
2018-01-13T14:46:11.146Z,17.87
2018-01-13T14:48:38.766Z,18.10
2018-01-13T14:51:06.365Z,18.47
2018-01-13T14:53:33.941Z,18.20
2018-01-13T14:56:01.551Z,19.47
2018-01-13T14:58:29.157Z,17.97
2018-01-13T15:00:56.746Z,16.77
2018-01-13T15:03:25.108Z,17.90
2018-01-13T15:05:53.470Z,18.10
2018-01-13T15:08:21.052Z,18.57
2018-01-13T15:10:49.408Z,18.10
2018-01-13T15:13:17.039Z,17.80
2018-01-13T15:15:44.623Z,18.00
2018-01-13T15:18:12.240Z,18.37
2018-01-13T15:20:39.833Z,18.00
2018-01-13T15:23:07.449Z,17.47
2018-01-13T15:25:46.138Z,18.90
2018-01-13T15:28:13.724Z,19.30
2018-01-13T15:30:42.119Z,18.57
2018-01-13T15:33:09.713Z,17.10
2018-01-13T15:35:37.299Z,17.83
2018-01-13T15:38:04.877Z,18.43
2018-01-13T15:40:33.237Z,16.93
2018-01-13T15:43:00.820Z,17.77
2018-01-13T15:45:30.112Z,18.57
2018-01-13T15:47:57.738Z,18.50
2018-01-13T15:50:25.347Z,17.87
2018-01-13T15:52:53.716Z,20.20
2018-01-13T15:55:21.310Z,22.40
2018-01-13T15:57:48.924Z,20.27
2018-01-13T16:00:16.526Z,18.33
2018-01-13T16:02:44.131Z,17.70
2018-01-13T16:05:11.754Z,17.50
2018-01-13T16:07:39.345Z,17.37
2018-01-13T16:10:06.958Z,18.67
2018-01-13T16:12:35.300Z,19.50
2018-01-13T16:15:02.909Z,17.27
2018-01-13T16:17:30.501Z,19.30
2018-01-13T16:19:58.098Z,17.43
2018-01-13T16:22:25.723Z,18.70
2018-01-13T16:24:55.260Z,18.57
2018-01-13T16:27:22.873Z,19.37
2018-01-13T16:29:53.030Z,17.10
2018-01-13T16:32:20.614Z,18.30
2018-01-13T16:34:49.010Z,15.77
2018-01-13T16:37:18.754Z,20.13
2018-01-13T16:39:46.351Z,18.10
2018-01-13T16:42:14.954Z,18.50
2018-01-13T16:44:42.579Z,19.27
2018-01-13T16:47:10.210Z,18.50
2018-01-13T16:49:38.590Z,18.00
2018-01-13T16:52:14.070Z,19.07
2018-01-13T16:54:42.429Z,20.33
2018-01-13T16:57:10.026Z,19.70
2018-01-13T16:59:37.628Z,18.73
2018-01-13T17:02:05.208Z,19.83
2018-01-13T17:04:32.820Z,18.07
2018-01-13T17:07:00.400Z,19.60
2018-01-13T17:09:28.744Z,17.97
2018-01-13T17:11:56.329Z,18.20
2018-01-13T17:14:23.904Z,20.50
2018-01-13T17:16:58.069Z,19.50
2018-01-13T17:19:25.649Z,19.83
2018-01-13T17:21:53.228Z,19.13
2018-01-13T17:24:21.598Z,17.90
2018-01-13T17:26:49.306Z,18.90
2018-01-13T17:29:16.934Z,18.83
2018-01-13T17:31:45.297Z,19.53
2018-01-13T17:34:12.876Z,19.03
2018-01-13T17:36:42.324Z,20.30
2018-01-13T17:39:10.927Z,20.30
2018-01-13T17:41:38.557Z,19.00
2018-01-13T17:44:06.132Z,18.40
2018-01-13T17:46:33.773Z,18.00
2018-01-13T17:49:01.360Z,17.00
2018-01-13T17:51:28.944Z,18.57
2018-01-13T17:53:56.557Z,18.30
2018-01-13T17:56:24.160Z,19.50
2018-01-13T17:58:51.774Z,19.27
2018-01-13T18:01:19.400Z,19.60
2018-01-13T18:03:52.785Z,19.30
2018-01-13T18:06:20.476Z,20.40
2018-01-13T18:08:49.776Z,21.30
2018-01-13T18:11:19.618Z,19.30
2018-01-13T18:13:47.230Z,20.30
2018-01-13T18:16:14.839Z,17.83
2018-01-13T18:18:42.442Z,19.60
2018-01-13T18:21:10.844Z,20.23
2018-01-13T18:23:38.470Z,19.43
2018-01-13T18:26:06.073Z,20.50
2018-01-13T18:28:33.674Z,19.73
2018-01-13T18:31:04.639Z,20.67
2018-01-13T18:33:32.231Z,20.80
2018-01-13T18:35:59.846Z,19.80
2018-01-13T18:38:27.470Z,20.97
2018-01-13T18:40:57.825Z,19.03
2018-01-13T18:43:25.417Z,17.03
2018-01-13T18:45:53.019Z,18.33
2018-01-13T18:48:21.389Z,19.10
2018-01-13T18:50:49.748Z,22.43
2018-01-13T18:53:17.354Z,17.60
2018-01-13T18:55:44.970Z,17.87
2018-01-13T18:58:12.576Z,21.23
2018-01-13T19:00:40.234Z,19.40
2018-01-13T19:03:07.830Z,16.10
2018-01-13T19:05:35.430Z,16.90
2018-01-13T19:08:06.547Z,17.63
2018-01-13T19:10:34.149Z,17.53
2018-01-13T19:13:02.510Z,16.67
2018-01-13T19:15:30.137Z,16.87
2018-01-13T19:17:57.742Z,17.57
2018-01-13T19:20:26.098Z,17.27
2018-01-13T19:22:53.696Z,16.33
2018-01-13T19:25:21.279Z,18.07
2018-01-13T19:27:48.916Z,19.33
2018-01-13T19:30:17.282Z,19.13
2018-01-13T19:32:45.659Z,18.30
2018-01-13T19:35:13.245Z,18.20
2018-01-13T19:37:40.843Z,19.07
2018-01-13T19:40:08.451Z,17.63
2018-01-13T19:42:36.846Z,17.93
2018-01-13T19:45:04.458Z,16.70
2018-01-13T19:47:32.062Z,16.93
2018-01-13T19:50:00.470Z,18.00
2018-01-13T19:52:28.060Z,18.37
2018-01-13T19:54:55.677Z,17.63
2018-01-13T19:57:23.256Z,16.43
2018-01-13T19:59:50.862Z,18.67
2018-01-13T20:02:18.485Z,18.80
2018-01-13T20:04:46.094Z,18.50
2018-01-13T20:07:35.821Z,18.93
2018-01-13T20:10:03.447Z,17.73
2018-01-13T20:12:31.815Z,18.33
2018-01-13T20:15:00.190Z,16.90
2018-01-13T20:17:27.803Z,17.03
2018-01-13T20:19:55.435Z,16.60
2018-01-13T20:22:23.800Z,18.10
2018-01-13T20:24:52.181Z,16.70
2018-01-13T20:27:20.547Z,18.33
2018-01-13T20:29:48.154Z,17.10
2018-01-13T20:32:15.764Z,17.20
2018-01-13T20:34:43.364Z,18.03
2018-01-13T20:37:14.997Z,16.00
2018-01-13T20:39:43.381Z,16.03
2018-01-13T20:42:10.991Z,18.70
2018-01-13T20:44:38.650Z,16.53
2018-01-13T20:47:06.248Z,17.20
2018-01-13T20:49:33.889Z,15.30
2018-01-13T20:52:01.505Z,16.73
2018-01-13T20:54:29.100Z,16.10
2018-01-13T20:56:56.737Z,17.67
2018-01-13T20:59:24.342Z,15.50
2018-01-13T21:01:52.747Z,17.50
2018-01-13T21:04:21.124Z,17.20
2018-01-13T21:06:49.482Z,16.23
2018-01-13T21:09:17.101Z,16.20
2018-01-13T21:11:44.708Z,14.87
2018-01-13T21:14:12.325Z,16.20
2018-01-13T21:16:39.933Z,16.57
2018-01-13T21:19:07.539Z,17.13
2018-01-13T21:21:35.174Z,16.30
2018-01-13T21:24:03.554Z,17.27
2018-01-13T21:26:45.040Z,16.27
2018-01-13T21:29:13.407Z,14.90
2018-01-13T21:31:41.033Z,17.70
2018-01-13T21:34:08.637Z,17.63
2018-01-13T21:36:36.281Z,17.00
2018-01-13T21:39:04.705Z,18.33
2018-01-13T21:41:32.297Z,18.63
2018-01-13T21:46:54.217Z,15.13
2018-01-13T21:49:21.832Z,15.70
2018-01-13T21:51:50.500Z,16.47
2018-01-13T21:54:20.040Z,15.07
2018-01-13T21:56:47.635Z,15.53
2018-01-13T21:59:15.325Z,15.33
2018-01-13T22:01:42.929Z,16.77
2018-01-13T22:04:11.373Z,18.00
2018-01-13T22:06:39.021Z,15.00
2018-01-13T22:09:06.619Z,14.30
2018-01-13T22:11:34.250Z,14.53
2018-01-13T22:14:05.601Z,15.80
2018-01-13T22:16:33.199Z,14.63
2018-01-13T22:19:00.792Z,14.33
2018-01-13T22:21:28.393Z,14.30
2018-01-13T22:23:56.015Z,13.60
2018-01-13T22:26:23.598Z,14.97
2018-01-13T22:28:51.204Z,14.43
2018-01-13T22:31:18.823Z,12.03
2018-01-13T22:33:46.432Z,12.23
2018-01-13T22:36:14.038Z,12.97
2018-01-13T22:38:41.638Z,11.70
2018-01-13T22:41:09.281Z,10.70
2018-01-13T22:43:40.744Z,11.77
2018-01-13T22:46:28.106Z,11.93
2018-01-13T22:49:11.276Z,11.03
2018-01-13T22:51:38.879Z,12.70
2018-01-13T22:54:07.451Z,12.03
2018-01-13T22:56:35.070Z,12.40
2018-01-13T22:59:02.689Z,12.50
2018-01-13T23:01:30.276Z,14.47
2018-01-13T23:03:58.640Z,12.97
2018-01-13T23:06:27.032Z,13.10
2018-01-13T23:08:55.391Z,13.03
2018-01-13T23:11:22.991Z,14.77
2018-01-13T23:13:50.603Z,16.00
2018-01-13T23:16:18.222Z,13.63
2018-01-13T23:18:45.829Z,14.60
2018-01-13T23:21:13.429Z,14.10
2018-01-13T23:23:41.028Z,15.70
2018-01-13T23:26:08.618Z,14.87
2018-01-13T23:28:36.203Z,15.80
2018-01-13T23:31:03.790Z,15.43
2018-01-13T23:33:31.421Z,16.80
2018-01-13T23:35:59.026Z,17.63
2018-01-13T23:38:26.621Z,16.87
2018-01-13T23:40:57.761Z,17.67
2018-01-13T23:43:25.331Z,17.20
2018-01-13T23:45:52.930Z,18.37
2018-01-13T23:48:20.522Z,16.50
2018-01-13T23:50:48.165Z,15.83
2018-01-13T23:53:15.766Z,17.00
2018-01-13T23:55:44.306Z,17.50
2018-01-13T23:58:11.899Z,17.10
